メインページ
METAR-TAF:

METAR-TAF

空港 :

オークランド国際空港

オークランド, ニュージーランド

緯度: 37-01S, 経度: 174-48E, 海抜: 7m

現時点の気象観測

当レポートは17分前の14:00(UTC)に作成
東/北東の風 3kt
気温 7°C
湿度 93%
気圧 1000 hPa
視程10km以上

METAR: NZAA 251400Z AUTO 06003KT 9999 NCD 07/06 Q1000

時間: 02:17 (14:17 UTC)

予報

当レポートは10分前の14:07(UTC)に作成
予報は25日の 14時(UTC)から 26日の 12時(UTC)まで有効
変向風 2kt
視程10km以上
高度3000ftの雲はほとんどない
高度5000ftの雲は散在している
弱いにわか雨
25日の 14時(UTC)から 25日の 19時(UTC)まで一時的に
視程: 4000m
高度2000ftの雲はほとんどない, 積乱雲.
激しいにわか雨, 氷霰/雪霰
25日の 15時(UTC)から 25日の 17時(UTC)まで徐々に
南/南東の風 10kt
25日の 20時(UTC)から 25日の 22時(UTC)まで徐々に
南西の風 15kt、最大25ktの突風を伴う
26日の 05時(UTC)から 26日の 07時(UTC)まで徐々に
西/南西の風 12kt

TAF: NZAA 251407Z 2514/2612 VRB02KT 9999 -SHRA FEW030 SCT050 TEMPO 2514/2519 4000 +SHRAGS FEW020CB BECMG 2515/2517 16010KT BECMG 2520/2522 22015G25KT BECMG 2605/2607 24012KT

4,000以上の空港の気象観測と天気予報(METAR報とTAF報)

利用可能な観測所は地図上に黄色い丸と赤い丸で示す。

丸の上にカーソルを重ねると観測所名を参照できる。

次にクリックすると気象観測と天気予報を参照できる。

マップの切り替え:黒色「×」印の緑ボタンをクリックして拡大、「-」印の緑ボタンをクリックして縮小、緑色の三角印をクリックして隣りの地図に切り替え


METAR-TAF: